createdAt,value
2022-12-26T00:02:15.326Z,81.15
2022-12-26T00:04:52.461Z,80.17
2022-12-26T00:07:20.210Z,79.60
2022-12-26T00:09:46.811Z,81.03
2022-12-26T00:12:14.197Z,81.59
2022-12-26T00:14:40.966Z,80.91
2022-12-26T00:17:07.787Z,81.90
2022-12-26T00:19:34.835Z,81.31
2022-12-26T00:22:01.351Z,81.32
2022-12-26T00:24:27.885Z,81.94
2022-12-26T00:26:54.486Z,82.09
2022-12-26T00:29:21.000Z,82.08
2022-12-26T00:31:47.652Z,82.12
2022-12-26T00:34:14.271Z,81.86
2022-12-26T00:36:41.303Z,81.82
2022-12-26T00:39:11.263Z,82.00
2022-12-26T00:41:37.889Z,82.18
2022-12-26T00:44:04.476Z,81.56
2022-12-26T00:46:32.148Z,82.67
2022-12-26T00:48:58.785Z,82.93
2022-12-26T00:51:25.320Z,82.88
2022-12-26T00:53:51.998Z,82.45
2022-12-26T00:56:18.523Z,82.76
2022-12-26T00:58:45.105Z,82.48
2022-12-26T01:01:21.741Z,81.44
2022-12-26T01:03:51.464Z,82.20
2022-12-26T01:06:18.216Z,80.41
2022-12-26T01:08:45.229Z,79.76
2022-12-26T01:11:13.476Z,80.50
2022-12-26T01:13:40.145Z,79.94
2022-12-26T01:16:07.697Z,81.51
2022-12-26T01:18:34.665Z,79.03
2022-12-26T01:21:07.754Z,78.30
2022-12-26T01:23:34.300Z,76.85
2022-12-26T01:26:15.456Z,76.57
2022-12-26T01:28:50.141Z,77.04
2022-12-26T01:31:17.271Z,77.00
2022-12-26T01:33:44.031Z,76.21
2022-12-26T01:36:10.799Z,77.48
2022-12-26T01:38:37.428Z,78.31
2022-12-26T01:41:22.113Z,76.85
2022-12-26T01:43:54.702Z,76.79
2022-12-26T01:46:32.637Z,78.84
2022-12-26T01:49:04.455Z,79.38
2022-12-26T01:51:34.076Z,77.89
2022-12-26T01:54:40.697Z,79.09
2022-12-26T01:56:49.699Z,80.09
2022-12-26T01:59:21.397Z,78.94
2022-12-26T02:01:49.525Z,80.35
2022-12-26T02:04:37.243Z,80.01
2022-12-26T02:07:04.400Z,82.85
2022-12-26T02:09:31.647Z,82.65
2022-12-26T02:12:33.799Z,83.42
2022-12-26T02:14:56.409Z,81.69
2022-12-26T02:17:23.203Z,82.43
2022-12-26T02:19:56.453Z,83.90
2022-12-26T02:22:45.996Z,83.07
2022-12-26T02:25:25.113Z,82.06
2022-12-26T02:27:54.558Z,82.99
2022-12-26T02:30:41.145Z,81.62
2022-12-26T02:33:16.705Z,81.49
2022-12-26T02:36:02.586Z,82.40
2022-12-26T02:38:45.574Z,82.48
2022-12-26T02:41:37.981Z,82.65
2022-12-26T02:44:24.381Z,82.37
2022-12-26T02:47:03.333Z,80.50
2022-12-26T02:50:01.077Z,81.39
2022-12-26T02:53:12.297Z,80.99
2022-12-26T02:56:00.096Z,80.44
2022-12-26T02:58:57.533Z,80.93
2022-12-26T03:01:56.428Z,80.36
2022-12-26T03:04:43.339Z,81.99
2022-12-26T03:07:35.154Z,81.55
2022-12-26T03:10:22.797Z,82.03
2022-12-26T03:13:11.914Z,82.29
2022-12-26T03:16:03.487Z,81.70
2022-12-26T03:18:58.120Z,81.53
2022-12-26T03:21:22.110Z,81.65
2022-12-26T03:23:49.027Z,81.59
2022-12-26T03:26:37.818Z,81.67
2022-12-26T03:29:23.010Z,82.85
2022-12-26T03:31:49.537Z,84.53
2022-12-26T03:34:18.877Z,83.61
2022-12-26T03:37:10.125Z,83.63
2022-12-26T03:40:29.902Z,83.19
2022-12-26T03:43:37.991Z,84.12
2022-12-26T03:46:35.460Z,84.31
2022-12-26T03:49:35.959Z,83.47
2022-12-26T03:52:25.172Z,83.20
2022-12-26T03:55:20.545Z,82.25
2022-12-26T03:58:19.963Z,82.92
2022-12-26T04:01:06.891Z,83.71
2022-12-26T04:03:53.783Z,82.66
2022-12-26T04:06:43.556Z,81.68
2022-12-26T04:09:32.391Z,81.90
2022-12-26T04:12:19.083Z,81.88
2022-12-26T04:15:13.944Z,83.11
2022-12-26T04:18:07.301Z,82.00
2022-12-26T04:20:36.913Z,79.98
2022-12-26T04:23:22.223Z,80.12
2022-12-26T04:26:24.272Z,81.89
2022-12-26T04:29:09.453Z,81.48
2022-12-26T04:32:04.142Z,81.94
2022-12-26T04:35:00.426Z,80.83
2022-12-26T04:37:46.736Z,81.69
2022-12-26T04:40:37.771Z,81.98
2022-12-26T04:43:50.187Z,80.56
2022-12-26T04:46:10.380Z,80.87
2022-12-26T04:49:01.986Z,80.22
2022-12-26T04:51:28.511Z,80.82
2022-12-26T04:53:55.043Z,81.07
2022-12-26T04:56:21.712Z,79.55
2022-12-26T04:58:48.174Z,79.83
2022-12-26T05:01:33.419Z,79.27
2022-12-26T05:04:18.662Z,79.45
2022-12-26T05:07:03.893Z,79.55
2022-12-26T05:09:36.468Z,80.97
2022-12-26T05:12:07.982Z,79.67
2022-12-26T05:14:35.950Z,80.49
2022-12-26T05:17:22.460Z,80.45
2022-12-26T05:20:07.570Z,80.48
2022-12-26T05:22:54.001Z,80.53
2022-12-26T05:25:42.571Z,81.08
2022-12-26T05:28:32.037Z,80.44
2022-12-26T05:30:58.969Z,79.46
2022-12-26T05:33:44.132Z,80.09
2022-12-26T05:36:10.763Z,80.61
2022-12-26T05:38:37.483Z,79.35
2022-12-26T05:41:04.351Z,80.43
2022-12-26T05:43:30.951Z,80.75
2022-12-26T05:45:57.872Z,80.96
2022-12-26T05:48:24.500Z,79.63
2022-12-26T05:50:50.970Z,79.95
2022-12-26T05:53:17.701Z,79.17
2022-12-26T05:55:44.296Z,79.54
2022-12-26T05:58:10.822Z,78.51
2022-12-26T06:00:37.377Z,78.79
2022-12-26T06:03:04.296Z,77.89
2022-12-26T06:05:30.896Z,79.58
2022-12-26T06:07:57.487Z,78.78
2022-12-26T06:10:26.232Z,77.96
2022-12-26T06:12:53.282Z,78.03
2022-12-26T06:15:19.748Z,77.52
2022-12-26T06:17:46.276Z,77.77
2022-12-26T06:20:12.969Z,78.26
2022-12-26T06:22:39.741Z,77.02
2022-12-26T06:25:07.145Z,76.42
2022-12-26T06:27:34.064Z,75.89
2022-12-26T06:30:00.621Z,75.53
2022-12-26T06:32:27.075Z,75.10
2022-12-26T06:34:53.541Z,76.26
2022-12-26T06:37:20.001Z,76.65
2022-12-26T06:39:46.529Z,76.26
2022-12-26T06:42:13.005Z,75.17
2022-12-26T06:44:39.544Z,73.92
2022-12-26T06:47:06.162Z,75.15
2022-12-26T06:49:33.352Z,73.90
2022-12-26T06:52:00.381Z,74.73
2022-12-26T06:54:26.932Z,74.58
2022-12-26T06:56:53.510Z,74.81
2022-12-26T06:59:20.065Z,75.34
2022-12-26T07:01:46.763Z,75.03
2022-12-26T07:04:13.750Z,74.94
2022-12-26T07:06:40.357Z,76.50
2022-12-26T07:09:09.850Z,75.72
2022-12-26T07:11:38.365Z,74.86
2022-12-26T07:14:06.286Z,74.02
2022-12-26T07:16:39.924Z,74.66
2022-12-26T07:19:07.498Z,73.90
2022-12-26T07:21:40.092Z,73.72
2022-12-26T07:24:08.908Z,73.18
2022-12-26T07:26:35.569Z,71.61
2022-12-26T07:29:02.117Z,71.76
2022-12-26T07:31:29.274Z,73.81
2022-12-26T07:33:56.908Z,73.09
2022-12-26T07:36:25.155Z,74.32
2022-12-26T07:38:52.163Z,72.62
2022-12-26T07:41:37.804Z,72.12
2022-12-26T07:44:05.891Z,73.43
2022-12-26T07:46:33.199Z,73.71
2022-12-26T07:49:00.445Z,71.87
2022-12-26T07:51:27.637Z,73.42
2022-12-26T07:53:54.372Z,73.34
2022-12-26T07:56:20.861Z,73.13
2022-12-26T07:58:51.393Z,72.46
2022-12-26T08:01:18.317Z,72.28
2022-12-26T08:03:45.343Z,73.49
2022-12-26T08:06:12.390Z,74.26
2022-12-26T08:08:38.923Z,73.63
2022-12-26T08:11:07.145Z,74.16
2022-12-26T08:13:35.095Z,74.48
2022-12-26T08:16:06.717Z,73.75
2022-12-26T08:18:33.703Z,74.70
2022-12-26T08:21:00.210Z,74.27
2022-12-26T08:23:27.943Z,74.37
2022-12-26T08:25:54.465Z,74.35
2022-12-26T08:28:21.003Z,73.91
2022-12-26T08:30:49.563Z,72.99
2022-12-26T08:33:16.446Z,72.69
2022-12-26T08:35:43.028Z,74.05
2022-12-26T08:38:09.464Z,73.86
2022-12-26T08:40:43.474Z,74.25
2022-12-26T08:43:32.099Z,73.53
2022-12-26T08:46:06.768Z,73.06
2022-12-26T08:48:38.056Z,72.80
2022-12-26T08:51:23.933Z,72.39
2022-12-26T08:53:51.397Z,72.80
2022-12-26T08:56:20.872Z,71.86
2022-12-26T08:58:48.020Z,72.22
2022-12-26T09:01:20.916Z,71.83
2022-12-26T09:03:47.674Z,71.19
2022-12-26T09:06:15.196Z,72.60
2022-12-26T09:08:42.117Z,71.87
2022-12-26T09:11:12.113Z,72.39
2022-12-26T09:13:39.072Z,72.66
2022-12-26T09:16:09.944Z,72.07
2022-12-26T09:18:36.967Z,71.00
2022-12-26T09:21:05.237Z,71.22
2022-12-26T09:23:31.739Z,71.23
2022-12-26T09:26:06.290Z,71.23
2022-12-26T09:28:33.392Z,70.57
2022-12-26T09:31:05.266Z,69.52
2022-12-26T09:33:37.688Z,69.30
2022-12-26T09:36:14.446Z,69.40
2022-12-26T09:38:42.381Z,71.14
2022-12-26T09:41:32.123Z,68.73
2022-12-26T09:44:14.668Z,65.16
2022-12-26T09:47:02.766Z,63.71
2022-12-26T09:49:33.159Z,62.33
2022-12-26T09:52:04.637Z,64.37
2022-12-26T09:54:39.310Z,63.32
2022-12-26T09:57:17.452Z,63.93
2022-12-26T09:59:58.270Z,64.49
2022-12-26T10:02:26.521Z,65.81
2022-12-26T10:04:54.829Z,66.34
2022-12-26T10:07:27.467Z,64.19
2022-12-26T10:09:58.267Z,62.98
2022-12-26T10:12:38.766Z,58.93
2022-12-26T10:15:30.121Z,57.17
2022-12-26T10:18:16.527Z,54.41
2022-12-26T10:21:07.691Z,49.13
2022-12-26T10:23:49.377Z,46.39
2022-12-26T10:26:20.093Z,49.57
2022-12-26T10:28:56.534Z,46.60
2022-12-26T10:31:31.081Z,45.08
2022-12-26T10:34:20.688Z,43.10
2022-12-26T10:36:48.888Z,45.33
2022-12-26T10:39:25.396Z,54.65
2022-12-26T10:41:58.811Z,56.66
2022-12-26T10:44:28.046Z,58.97
2022-12-26T10:47:07.909Z,60.80
2022-12-26T10:49:34.366Z,60.73
2022-12-26T10:52:01.987Z,60.59
2022-12-26T10:54:29.707Z,60.89
2022-12-26T10:56:57.746Z,59.20
2022-12-26T10:59:36.300Z,57.53
2022-12-26T11:02:16.623Z,53.75
2022-12-26T11:05:33.236Z,53.14
2022-12-26T11:07:51.641Z,51.98
2022-12-26T11:10:21.354Z,48.40
2022-12-26T11:12:53.320Z,50.83
2022-12-26T11:15:42.778Z,56.01
2022-12-26T11:18:16.051Z,58.41
2022-12-26T11:20:43.416Z,59.00
2022-12-26T11:23:28.946Z,59.67
2022-12-26T11:26:00.570Z,59.76
2022-12-26T11:28:33.717Z,60.60
2022-12-26T11:31:02.092Z,59.75
2022-12-26T11:33:45.626Z,60.77
2022-12-26T11:36:15.183Z,60.06
2022-12-26T11:38:50.786Z,61.99
2022-12-26T11:41:31.710Z,61.87
2022-12-26T11:44:10.400Z,62.39
2022-12-26T11:46:38.017Z,62.68
2022-12-26T11:49:05.315Z,63.42
2022-12-26T11:51:39.133Z,63.48
2022-12-26T11:54:35.807Z,63.34
2022-12-26T11:57:17.781Z,63.34
2022-12-26T11:59:44.683Z,63.04
2022-12-26T12:02:19.508Z,62.65
2022-12-26T12:04:47.434Z,62.25
2022-12-26T12:07:39.740Z,62.88
2022-12-26T12:10:21.464Z,63.04
2022-12-26T12:13:17.100Z,64.77
2022-12-26T12:16:11.243Z,66.74
2022-12-26T12:18:55.591Z,69.04
2022-12-26T12:21:40.980Z,72.69
2022-12-26T12:24:32.774Z,74.73
2022-12-26T12:27:37.987Z,75.81
2022-12-26T12:30:27.646Z,76.25
2022-12-26T12:32:57.499Z,75.76
2022-12-26T12:35:51.899Z,76.75
2022-12-26T12:38:32.116Z,75.33
2022-12-26T12:41:21.205Z,75.28
2022-12-26T12:44:06.502Z,74.12
2022-12-26T12:47:14.620Z,74.03
2022-12-26T12:50:07.194Z,72.77
2022-12-26T12:52:33.757Z,72.64
2022-12-26T12:55:00.594Z,72.50
2022-12-26T12:57:38.865Z,69.82
2022-12-26T13:00:08.502Z,69.35
2022-12-26T13:02:45.772Z,66.58
2022-12-26T13:05:34.091Z,65.53
2022-12-26T13:08:06.995Z,66.11
2022-12-26T13:10:35.914Z,66.72
2022-12-26T13:13:28.074Z,66.17
2022-12-26T13:15:58.760Z,68.26
2022-12-26T13:18:30.076Z,70.60
2022-12-26T13:21:07.486Z,71.58
2022-12-26T13:23:59.801Z,72.49
2022-12-26T13:26:32.516Z,74.07
2022-12-26T13:29:11.201Z,74.77
2022-12-26T13:31:39.331Z,75.70
2022-12-26T13:34:09.879Z,76.43
2022-12-26T13:36:40.927Z,76.00
2022-12-26T13:39:21.612Z,76.88
2022-12-26T13:42:21.276Z,76.18
2022-12-26T13:44:53.350Z,74.51
2022-12-26T13:47:39.316Z,75.93
2022-12-26T13:50:51.743Z,75.95
2022-12-26T13:53:24.773Z,75.19
2022-12-26T13:55:52.770Z,74.49
2022-12-26T13:58:29.921Z,74.67
2022-12-26T14:01:17.589Z,74.13
2022-12-26T14:03:53.304Z,74.19
2022-12-26T14:06:29.866Z,74.93
2022-12-26T14:09:18.403Z,73.22
2022-12-26T14:12:09.972Z,73.61
2022-12-26T14:14:50.763Z,72.70
2022-12-26T14:17:35.884Z,71.72
2022-12-26T14:20:16.842Z,72.81
2022-12-26T14:23:09.494Z,72.03
2022-12-26T14:25:51.300Z,70.67
2022-12-26T14:28:20.734Z,70.00
2022-12-26T14:30:59.757Z,70.16
2022-12-26T14:33:35.625Z,70.21
2022-12-26T14:36:14.218Z,69.26
2022-12-26T14:38:48.313Z,69.61
2022-12-26T14:41:35.662Z,69.49
2022-12-26T14:44:20.477Z,69.69
2022-12-26T14:46:50.016Z,69.59
2022-12-26T14:49:35.538Z,69.68
2022-12-26T14:52:24.261Z,69.35
2022-12-26T14:54:54.294Z,67.86
2022-12-26T14:57:45.708Z,67.63
2022-12-26T15:00:25.856Z,66.82
2022-12-26T15:02:58.462Z,66.67
2022-12-26T15:05:28.167Z,65.82
2022-12-26T15:08:13.126Z,65.80
2022-12-26T15:10:54.499Z,65.16
2022-12-26T15:13:20.930Z,64.67
2022-12-26T15:16:12.533Z,64.95
2022-12-26T15:18:47.930Z,64.81
2022-12-26T15:21:45.414Z,64.78
2022-12-26T15:24:11.853Z,65.19
2022-12-26T15:27:15.810Z,65.56
2022-12-26T15:30:19.443Z,64.93
2022-12-26T15:32:54.947Z,63.95
2022-12-26T15:35:50.968Z,63.47
2022-12-26T15:38:47.256Z,63.41
2022-12-26T15:41:18.675Z,64.33
2022-12-26T15:44:09.127Z,63.86
2022-12-26T15:46:42.736Z,63.00
2022-12-26T15:49:22.303Z,63.08
2022-12-26T15:51:56.340Z,62.78
2022-12-26T15:54:44.783Z,62.82
2022-12-26T15:57:29.560Z,62.61
2022-12-26T16:00:12.986Z,62.77
2022-12-26T16:02:47.821Z,62.49
2022-12-26T16:05:32.472Z,62.85
2022-12-26T16:08:15.001Z,61.57
2022-12-26T16:10:44.601Z,62.67
2022-12-26T16:13:22.636Z,62.91
2022-12-26T16:15:56.780Z,62.97
2022-12-26T16:18:30.644Z,62.89
2022-12-26T16:21:19.454Z,62.47
2022-12-26T16:23:46.688Z,62.06
2022-12-26T16:26:25.041Z,62.09
2022-12-26T16:28:52.123Z,62.03
2022-12-26T16:31:21.928Z,62.16
2022-12-26T16:33:48.509Z,62.32
2022-12-26T16:36:26.574Z,62.38
2022-12-26T16:38:53.977Z,62.45
2022-12-26T16:41:25.556Z,61.44
2022-12-26T16:43:57.069Z,61.66
2022-12-26T16:46:28.744Z,63.22
2022-12-26T16:48:59.487Z,62.69
2022-12-26T16:51:42.665Z,61.77
2022-12-26T16:54:21.271Z,62.47
2022-12-26T16:56:51.273Z,63.57
2022-12-26T16:59:21.752Z,62.72
2022-12-26T17:01:50.470Z,62.75
2022-12-26T17:04:23.336Z,63.28
2022-12-26T17:06:55.358Z,63.87
2022-12-26T17:09:24.044Z,63.56
2022-12-26T17:12:07.736Z,62.78
2022-12-26T17:14:40.256Z,63.86
2022-12-26T17:17:22.124Z,63.93
2022-12-26T17:19:56.560Z,64.11
2022-12-26T17:22:29.249Z,64.40
2022-12-26T17:25:26.192Z,64.02
2022-12-26T17:28:08.067Z,64.39
2022-12-26T17:30:41.377Z,63.94
2022-12-26T17:33:13.975Z,63.94
2022-12-26T17:36:32.876Z,64.22
2022-12-26T17:38:28.521Z,62.98
2022-12-26T17:40:56.633Z,63.51
2022-12-26T17:43:24.370Z,63.03
2022-12-26T17:45:51.366Z,63.09
2022-12-26T17:48:18.037Z,62.58
2022-12-26T17:50:47.169Z,62.55
2022-12-26T17:53:22.417Z,62.71
2022-12-26T17:55:53.424Z,62.60
2022-12-26T17:58:20.268Z,62.38
2022-12-26T18:00:47.285Z,61.91
2022-12-26T18:03:14.849Z,61.54
2022-12-26T18:05:42.842Z,60.51
2022-12-26T18:08:20.132Z,61.08
2022-12-26T18:10:46.723Z,60.63
2022-12-26T18:13:15.449Z,62.19
2022-12-26T18:15:42.134Z,62.03
2022-12-26T18:18:22.837Z,60.73
2022-12-26T18:20:50.208Z,62.28
2022-12-26T18:23:16.926Z,62.17
2022-12-26T18:25:43.626Z,62.92
2022-12-26T18:28:12.718Z,63.45
2022-12-26T18:30:39.501Z,62.47
2022-12-26T18:33:05.977Z,63.27
2022-12-26T18:35:32.561Z,63.33
2022-12-26T18:37:59.426Z,63.77
2022-12-26T18:40:35.067Z,61.97
2022-12-26T18:43:02.415Z,62.49
2022-12-26T18:45:32.269Z,62.89
2022-12-26T18:48:00.999Z,61.52
2022-12-26T18:50:29.529Z,62.30
2022-12-26T18:52:56.004Z,62.48
2022-12-26T18:55:23.616Z,61.17
2022-12-26T18:57:50.359Z,62.19
2022-12-26T19:00:17.983Z,62.06
2022-12-26T19:02:48.703Z,60.80
2022-12-26T19:05:21.836Z,61.65
2022-12-26T19:07:50.081Z,60.83
2022-12-26T19:10:18.795Z,60.79
2022-12-26T19:12:45.494Z,61.73
2022-12-26T19:15:14.502Z,61.09
2022-12-26T19:17:43.609Z,61.87
2022-12-26T19:20:24.189Z,61.13
2022-12-26T19:22:52.353Z,60.80
2022-12-26T19:25:21.097Z,59.93
2022-12-26T19:27:48.366Z,61.04
2022-12-26T19:30:15.812Z,61.53
2022-12-26T19:32:45.502Z,61.10
2022-12-26T19:35:12.526Z,61.80
2022-12-26T19:37:39.070Z,62.40
2022-12-26T19:40:07.067Z,62.19
2022-12-26T19:42:38.219Z,62.62
2022-12-26T19:45:06.571Z,62.54
2022-12-26T19:47:34.349Z,62.88
2022-12-26T19:50:01.211Z,62.96
2022-12-26T19:52:27.823Z,62.79
2022-12-26T19:54:54.400Z,63.05
2022-12-26T19:57:23.246Z,63.39
2022-12-26T19:59:50.515Z,62.90
2022-12-26T20:02:17.203Z,62.37
2022-12-26T20:04:44.201Z,64.29
2022-12-26T20:07:10.700Z,62.89
2022-12-26T20:09:37.307Z,63.36
2022-12-26T20:12:06.700Z,63.34
2022-12-26T20:14:33.416Z,63.40
2022-12-26T20:17:05.629Z,63.19
2022-12-26T20:19:36.924Z,63.16
2022-12-26T20:22:04.140Z,63.72
2022-12-26T20:24:30.804Z,63.58
2022-12-26T20:26:57.364Z,64.11
2022-12-26T20:29:23.901Z,65.31
2022-12-26T20:31:50.695Z,64.52
2022-12-26T20:34:17.498Z,65.02
2022-12-26T20:36:44.020Z,64.66
2022-12-26T20:39:13.348Z,63.99
2022-12-26T20:41:39.919Z,64.82
2022-12-26T20:44:06.930Z,64.45
2022-12-26T20:46:34.554Z,63.58
2022-12-26T20:49:02.231Z,63.52
2022-12-26T20:51:36.821Z,63.63
2022-12-26T20:54:03.854Z,63.57
2022-12-26T20:56:30.447Z,64.29
2022-12-26T20:58:59.297Z,63.25
2022-12-26T21:01:27.476Z,64.32
2022-12-26T21:03:55.190Z,63.95
2022-12-26T21:06:24.846Z,63.58
2022-12-26T21:08:53.181Z,63.39
2022-12-26T21:11:25.575Z,64.89
2022-12-26T21:13:55.805Z,64.31
2022-12-26T21:16:35.354Z,64.03
2022-12-26T21:19:02.796Z,64.14
2022-12-26T21:21:35.304Z,63.77
2022-12-26T21:24:08.199Z,63.90
2022-12-26T21:26:36.602Z,63.43
2022-12-26T21:29:05.157Z,63.69
2022-12-26T21:31:32.160Z,63.82
2022-12-26T21:34:00.218Z,63.81
2022-12-26T21:36:27.565Z,63.34
2022-12-26T21:38:54.628Z,63.70
2022-12-26T21:41:21.703Z,64.03
2022-12-26T21:43:48.423Z,63.85
2022-12-26T21:46:16.944Z,62.62
2022-12-26T21:48:50.320Z,62.65
2022-12-26T21:51:18.336Z,62.06
2022-12-26T21:53:45.458Z,63.11
2022-12-26T21:56:13.305Z,62.54
2022-12-26T21:58:59.034Z,62.58
2022-12-26T22:01:26.283Z,62.29
2022-12-26T22:04:12.206Z,62.58
2022-12-26T22:06:39.440Z,62.57
2022-12-26T22:09:06.685Z,62.00
2022-12-26T22:11:51.743Z,61.73
2022-12-26T22:14:18.212Z,61.65
2022-12-26T22:16:44.681Z,60.47
2022-12-26T22:19:11.133Z,60.83
2022-12-26T22:21:39.713Z,60.34
2022-12-26T22:24:06.766Z,60.43
2022-12-26T22:26:33.267Z,59.37
2022-12-26T22:28:59.912Z,59.73
2022-12-26T22:31:28.816Z,59.78
2022-12-26T22:33:57.101Z,58.55
2022-12-26T22:36:24.497Z,60.06
2022-12-26T22:38:51.143Z,60.91
2022-12-26T22:41:17.684Z,60.82
2022-12-26T22:43:44.645Z,60.64
2022-12-26T22:46:12.307Z,60.80
2022-12-26T22:48:39.421Z,61.12
2022-12-26T22:51:06.346Z,60.93
2022-12-26T22:53:32.873Z,60.40
2022-12-26T22:56:02.702Z,60.33
2022-12-26T22:58:30.201Z,60.31
2022-12-26T23:00:56.994Z,59.53
2022-12-26T23:03:24.632Z,59.10
2022-12-26T23:05:51.477Z,59.35
2022-12-26T23:08:21.374Z,58.88
2022-12-26T23:10:48.903Z,59.44
2022-12-26T23:13:16.270Z,59.02
2022-12-26T23:16:09.739Z,59.86
2022-12-26T23:19:04.559Z,59.14
2022-12-26T23:21:43.710Z,58.56
2022-12-26T23:24:21.909Z,59.01
2022-12-26T23:26:51.653Z,58.64
2022-12-26T23:29:38.975Z,59.04
2022-12-26T23:32:07.699Z,59.62
2022-12-26T23:34:34.737Z,59.28
2022-12-26T23:37:01.529Z,59.64
2022-12-26T23:39:28.057Z,60.27
2022-12-26T23:41:54.800Z,59.52
2022-12-26T23:44:21.311Z,59.92
2022-12-26T23:46:47.921Z,60.27
2022-12-26T23:49:15.678Z,59.66
2022-12-26T23:51:42.873Z,60.06
2022-12-26T23:54:09.823Z,60.08
2022-12-26T23:56:36.684Z,60.31
2022-12-26T23:59:04.131Z,60.26
